sensor_id;sensor_type;location;lat;lon;timestamp;P1;durP1;ratioP1;P2;durP2;ratioP2
9424;SDS011;17139;52.140;11.636;2023-05-07T00:01:38;8.00;;;7.30;;
9424;SDS011;17139;52.140;11.636;2023-05-07T00:04:05;6.67;;;6.27;;
9424;SDS011;17139;52.140;11.636;2023-05-07T00:06:33;6.57;;;6.00;;
9424;SDS011;17139;52.140;11.636;2023-05-07T00:09:02;9.80;;;9.10;;
9424;SDS011;17139;52.140;11.636;2023-05-07T00:11:29;7.60;;;7.07;;
9424;SDS011;17139;52.140;11.636;2023-05-07T00:13:56;6.87;;;6.43;;
9424;SDS011;17139;52.140;11.636;2023-05-07T00:16:23;6.23;;;5.77;;
9424;SDS011;17139;52.140;11.636;2023-05-07T00:18:51;6.27;;;5.87;;
9424;SDS011;17139;52.140;11.636;2023-05-07T00:21:18;5.43;;;5.03;;
9424;SDS011;17139;52.140;11.636;2023-05-07T00:23:46;5.97;;;5.50;;
9424;SDS011;17139;52.140;11.636;2023-05-07T00:26:15;4.20;;;4.00;;
9424;SDS011;17139;52.140;11.636;2023-05-07T00:28:42;4.30;;;4.07;;
9424;SDS011;17139;52.140;11.636;2023-05-07T00:31:09;5.32;;;5.03;;
9424;SDS011;17139;52.140;11.636;2023-05-07T00:33:37;6.50;;;6.03;;
9424;SDS011;17139;52.140;11.636;2023-05-07T00:36:04;5.57;;;5.27;;
9424;SDS011;17139;52.140;11.636;2023-05-07T00:38:31;4.77;;;4.57;;
9424;SDS011;17139;52.140;11.636;2023-05-07T00:40:58;4.73;;;4.53;;
9424;SDS011;17139;52.140;11.636;2023-05-07T00:43:28;4.60;;;4.40;;
9424;SDS011;17139;52.140;11.636;2023-05-07T00:45:55;4.70;;;4.40;;
9424;SDS011;17139;52.140;11.636;2023-05-07T00:48:22;4.47;;;4.23;;
9424;SDS011;17139;52.140;11.636;2023-05-07T00:50:50;4.63;;;4.43;;
9424;SDS011;17139;52.140;11.636;2023-05-07T00:53:17;5.00;;;4.73;;
9424;SDS011;17139;52.140;11.636;2023-05-07T00:55:44;5.32;;;5.03;;
9424;SDS011;17139;52.140;11.636;2023-05-07T00:58:12;5.07;;;4.87;;
9424;SDS011;17139;52.140;11.636;2023-05-07T01:00:40;5.30;;;5.03;;
9424;SDS011;17139;52.140;11.636;2023-05-07T01:03:07;5.33;;;5.03;;
9424;SDS011;17139;52.140;11.636;2023-05-07T01:05:34;4.93;;;4.73;;
9424;SDS011;17139;52.140;11.636;2023-05-07T01:08:02;5.37;;;5.17;;
9424;SDS011;17139;52.140;11.636;2023-05-07T01:10:30;5.37;;;5.07;;
9424;SDS011;17139;52.140;11.636;2023-05-07T01:12:57;7.07;;;5.53;;
9424;SDS011;17139;52.140;11.636;2023-05-07T01:15:25;6.03;;;5.53;;
9424;SDS011;17139;52.140;11.636;2023-05-07T01:17:54;5.23;;;5.03;;
9424;SDS011;17139;52.140;11.636;2023-05-07T01:20:22;5.90;;;5.50;;
9424;SDS011;17139;52.140;11.636;2023-05-07T01:22:51;6.00;;;5.70;;
9424;SDS011;17139;52.140;11.636;2023-05-07T01:25:19;7.13;;;6.72;;
9424;SDS011;17139;52.140;11.636;2023-05-07T01:27:46;6.80;;;6.40;;
9424;SDS011;17139;52.140;11.636;2023-05-07T01:30:14;5.83;;;5.53;;
9424;SDS011;17139;52.140;11.636;2023-05-07T01:32:42;5.57;;;5.27;;
9424;SDS011;17139;52.140;11.636;2023-05-07T01:35:15;5.53;;;5.23;;
9424;SDS011;17139;52.140;11.636;2023-05-07T01:37:44;5.43;;;5.13;;
9424;SDS011;17139;52.140;11.636;2023-05-07T01:40:14;6.27;;;5.90;;
9424;SDS011;17139;52.140;11.636;2023-05-07T01:42:41;6.00;;;5.70;;
9424;SDS011;17139;52.140;11.636;2023-05-07T01:45:10;5.27;;;4.93;;
9424;SDS011;17139;52.140;11.636;2023-05-07T01:47:37;6.23;;;5.70;;
9424;SDS011;17139;52.140;11.636;2023-05-07T01:50:06;5.53;;;5.23;;
9424;SDS011;17139;52.140;11.636;2023-05-07T01:52:35;5.60;;;5.30;;
9424;SDS011;17139;52.140;11.636;2023-05-07T01:55:03;7.15;;;6.75;;
9424;SDS011;17139;52.140;11.636;2023-05-07T01:57:33;6.03;;;5.73;;
9424;SDS011;17139;52.140;11.636;2023-05-07T02:00:00;5.97;;;5.67;;
9424;SDS011;17139;52.140;11.636;2023-05-07T02:02:31;5.93;;;5.63;;
9424;SDS011;17139;52.140;11.636;2023-05-07T02:04:59;5.40;;;5.10;;
9424;SDS011;17139;52.140;11.636;2023-05-07T02:07:26;5.40;;;5.10;;
9424;SDS011;17139;52.140;11.636;2023-05-07T02:09:55;5.33;;;4.93;;
9424;SDS011;17139;52.140;11.636;2023-05-07T02:12:22;5.50;;;5.20;;
9424;SDS011;17139;52.140;11.636;2023-05-07T02:14:51;5.73;;;5.40;;
9424;SDS011;17139;52.140;11.636;2023-05-07T02:17:18;5.67;;;5.37;;
9424;SDS011;17139;52.140;11.636;2023-05-07T02:19:45;7.38;;;6.97;;
9424;SDS011;17139;52.140;11.636;2023-05-07T02:22:12;7.22;;;6.82;;
9424;SDS011;17139;52.140;11.636;2023-05-07T02:24:39;6.00;;;5.70;;
9424;SDS011;17139;52.140;11.636;2023-05-07T02:27:06;5.60;;;5.30;;
9424;SDS011;17139;52.140;11.636;2023-05-07T02:29:33;5.57;;;5.27;;
9424;SDS011;17139;52.140;11.636;2023-05-07T02:32:01;5.33;;;5.03;;
9424;SDS011;17139;52.140;11.636;2023-05-07T02:34:28;5.37;;;5.03;;
9424;SDS011;17139;52.140;11.636;2023-05-07T02:36:55;5.10;;;4.90;;
9424;SDS011;17139;52.140;11.636;2023-05-07T02:39:22;5.37;;;5.00;;
9424;SDS011;17139;52.140;11.636;2023-05-07T02:41:49;5.77;;;5.30;;
9424;SDS011;17139;52.140;11.636;2023-05-07T02:44:16;5.30;;;5.03;;
9424;SDS011;17139;52.140;11.636;2023-05-07T02:46:43;5.20;;;4.90;;
9424;SDS011;17139;52.140;11.636;2023-05-07T02:49:12;5.33;;;5.10;;
9424;SDS011;17139;52.140;11.636;2023-05-07T02:51:39;7.05;;;6.70;;
9424;SDS011;17139;52.140;11.636;2023-05-07T02:54:06;5.93;;;5.53;;
9424;SDS011;17139;52.140;11.636;2023-05-07T02:56:33;4.93;;;4.63;;
9424;SDS011;17139;52.140;11.636;2023-05-07T02:59:00;5.37;;;5.13;;
9424;SDS011;17139;52.140;11.636;2023-05-07T03:01:27;5.20;;;4.90;;
9424;SDS011;17139;52.140;11.636;2023-05-07T03:03:54;5.30;;;5.10;;
9424;SDS011;17139;52.140;11.636;2023-05-07T03:06:22;5.93;;;5.37;;
9424;SDS011;17139;52.140;11.636;2023-05-07T03:08:50;5.60;;;5.20;;
9424;SDS011;17139;52.140;11.636;2023-05-07T03:11:17;5.03;;;4.73;;
9424;SDS011;17139;52.140;11.636;2023-05-07T03:13:44;4.90;;;4.60;;
9424;SDS011;17139;52.140;11.636;2023-05-07T03:16:11;7.20;;;6.80;;
9424;SDS011;17139;52.140;11.636;2023-05-07T03:18:38;5.67;;;5.37;;
9424;SDS011;17139;52.140;11.636;2023-05-07T03:21:05;5.87;;;5.57;;
9424;SDS011;17139;52.140;11.636;2023-05-07T03:23:33;6.37;;;5.97;;
9424;SDS011;17139;52.140;11.636;2023-05-07T03:26:02;5.60;;;5.30;;
9424;SDS011;17139;52.140;11.636;2023-05-07T03:28:29;5.37;;;5.13;;
9424;SDS011;17139;52.140;11.636;2023-05-07T03:30:56;5.50;;;5.23;;
9424;SDS011;17139;52.140;11.636;2023-05-07T03:33:23;5.83;;;5.53;;
9424;SDS011;17139;52.140;11.636;2023-05-07T03:35:50;5.63;;;5.33;;
9424;SDS011;17139;52.140;11.636;2023-05-07T03:38:17;5.80;;;5.50;;
9424;SDS011;17139;52.140;11.636;2023-05-07T03:40:45;7.33;;;6.93;;
9424;SDS011;17139;52.140;11.636;2023-05-07T03:43:12;7.40;;;7.00;;
9424;SDS011;17139;52.140;11.636;2023-05-07T03:45:39;6.77;;;6.37;;
9424;SDS011;17139;52.140;11.636;2023-05-07T03:48:06;7.03;;;5.33;;
9424;SDS011;17139;52.140;11.636;2023-05-07T03:50:33;5.97;;;5.57;;
9424;SDS011;17139;52.140;11.636;2023-05-07T03:53:00;5.37;;;5.07;;
9424;SDS011;17139;52.140;11.636;2023-05-07T03:55:27;5.77;;;5.53;;
9424;SDS011;17139;52.140;11.636;2023-05-07T03:57:56;5.77;;;5.47;;
9424;SDS011;17139;52.140;11.636;2023-05-07T04:00:23;5.53;;;5.23;;
9424;SDS011;17139;52.140;11.636;2023-05-07T04:02:50;7.63;;;7.13;;
9424;SDS011;17139;52.140;11.636;2023-05-07T04:05:17;6.17;;;5.83;;
9424;SDS011;17139;52.140;11.636;2023-05-07T04:07:44;5.63;;;5.17;;
9424;SDS011;17139;52.140;11.636;2023-05-07T04:10:11;6.20;;;5.90;;
9424;SDS011;17139;52.140;11.636;2023-05-07T04:12:38;6.03;;;5.67;;
9424;SDS011;17139;52.140;11.636;2023-05-07T04:15:07;6.40;;;6.00;;
9424;SDS011;17139;52.140;11.636;2023-05-07T04:17:35;6.50;;;6.20;;
9424;SDS011;17139;52.140;11.636;2023-05-07T04:20:02;5.07;;;4.83;;
9424;SDS011;17139;52.140;11.636;2023-05-07T04:22:32;5.67;;;5.40;;
9424;SDS011;17139;52.140;11.636;2023-05-07T04:24:59;5.57;;;5.27;;
9424;SDS011;17139;52.140;11.636;2023-05-07T04:27:27;5.33;;;5.03;;
9424;SDS011;17139;52.140;11.636;2023-05-07T04:29:54;6.07;;;5.77;;
9424;SDS011;17139;52.140;11.636;2023-05-07T04:32:23;6.00;;;5.60;;
9424;SDS011;17139;52.140;11.636;2023-05-07T04:34:51;6.30;;;5.70;;
9424;SDS011;17139;52.140;11.636;2023-05-07T04:37:18;5.47;;;5.17;;
9424;SDS011;17139;52.140;11.636;2023-05-07T04:39:45;5.43;;;5.03;;
9424;SDS011;17139;52.140;11.636;2023-05-07T04:42:14;5.27;;;5.07;;
9424;SDS011;17139;52.140;11.636;2023-05-07T04:44:41;7.60;;;5.60;;
9424;SDS011;17139;52.140;11.636;2023-05-07T04:47:08;4.80;;;4.50;;
9424;SDS011;17139;52.140;11.636;2023-05-07T04:49:36;5.27;;;4.97;;
9424;SDS011;17139;52.140;11.636;2023-05-07T04:52:04;5.10;;;4.90;;
9424;SDS011;17139;52.140;11.636;2023-05-07T04:54:31;4.90;;;4.60;;
9424;SDS011;17139;52.140;11.636;2023-05-07T04:56:58;4.87;;;4.57;;
9424;SDS011;17139;52.140;11.636;2023-05-07T04:59:25;6.70;;;6.30;;
9424;SDS011;17139;52.140;11.636;2023-05-07T05:01:52;6.65;;;6.35;;
9424;SDS011;17139;52.140;11.636;2023-05-07T05:04:19;5.30;;;5.00;;
9424;SDS011;17139;52.140;11.636;2023-05-07T05:06:47;4.70;;;4.47;;
9424;SDS011;17139;52.140;11.636;2023-05-07T05:09:14;4.10;;;3.90;;
9424;SDS011;17139;52.140;11.636;2023-05-07T05:11:41;3.83;;;3.67;;
9424;SDS011;17139;52.140;11.636;2023-05-07T05:14:08;3.93;;;3.73;;
9424;SDS011;17139;52.140;11.636;2023-05-07T05:16:35;4.40;;;4.20;;
9424;SDS011;17139;52.140;11.636;2023-05-07T05:19:02;3.77;;;3.67;;
9424;SDS011;17139;52.140;11.636;2023-05-07T05:21:29;3.80;;;3.70;;
9424;SDS011;17139;52.140;11.636;2023-05-07T05:23:58;5.30;;;5.10;;
9424;SDS011;17139;52.140;11.636;2023-05-07T05:26:25;4.50;;;4.30;;
9424;SDS011;17139;52.140;11.636;2023-05-07T05:28:52;4.17;;;3.93;;
9424;SDS011;17139;52.140;11.636;2023-05-07T05:31:19;4.10;;;3.90;;
9424;SDS011;17139;52.140;11.636;2023-05-07T05:33:47;3.97;;;3.77;;
9424;SDS011;17139;52.140;11.636;2023-05-07T05:36:14;3.77;;;3.67;;
9424;SDS011;17139;52.140;11.636;2023-05-07T05:38:41;3.83;;;3.63;;
9424;SDS011;17139;52.140;11.636;2023-05-07T05:41:10;4.27;;;4.00;;
9424;SDS011;17139;52.140;11.636;2023-05-07T05:43:37;3.93;;;3.83;;
9424;SDS011;17139;52.140;11.636;2023-05-07T05:46:05;3.77;;;3.60;;
9424;SDS011;17139;52.140;11.636;2023-05-07T05:48:33;4.07;;;3.87;;
9424;SDS011;17139;52.140;11.636;2023-05-07T05:51:01;3.70;;;3.50;;
9424;SDS011;17139;52.140;11.636;2023-05-07T05:53:28;5.13;;;3.90;;
9424;SDS011;17139;52.140;11.636;2023-05-07T05:55:55;4.97;;;4.78;;
9424;SDS011;17139;52.140;11.636;2023-05-07T05:58:23;4.20;;;4.00;;
9424;SDS011;17139;52.140;11.636;2023-05-07T06:00:50;4.07;;;3.87;;
9424;SDS011;17139;52.140;11.636;2023-05-07T06:03:18;4.13;;;3.83;;
9424;SDS011;17139;52.140;11.636;2023-05-07T06:05:45;4.07;;;3.77;;
9424;SDS011;17139;52.140;11.636;2023-05-07T06:08:12;3.30;;;3.20;;
9424;SDS011;17139;52.140;11.636;2023-05-07T06:10:39;3.47;;;3.37;;
9424;SDS011;17139;52.140;11.636;2023-05-07T06:13:06;3.10;;;3.00;;
9424;SDS011;17139;52.140;11.636;2023-05-07T06:15:35;3.50;;;3.37;;
9424;SDS011;17139;52.140;11.636;2023-05-07T06:18:02;3.50;;;3.37;;
9424;SDS011;17139;52.140;11.636;2023-05-07T06:20:29;4.40;;;4.20;;
9424;SDS011;17139;52.140;11.636;2023-05-07T06:22:56;3.93;;;3.73;;
9424;SDS011;17139;52.140;11.636;2023-05-07T06:25:23;3.57;;;3.47;;
9424;SDS011;17139;52.140;11.636;2023-05-07T06:27:50;3.67;;;3.40;;
9424;SDS011;17139;52.140;11.636;2023-05-07T06:30:17;3.70;;;3.50;;
9424;SDS011;17139;52.140;11.636;2023-05-07T06:32:45;3.33;;;3.23;;
9424;SDS011;17139;52.140;11.636;2023-05-07T06:35:12;3.67;;;3.47;;
9424;SDS011;17139;52.140;11.636;2023-05-07T06:37:40;3.53;;;3.33;;
9424;SDS011;17139;52.140;11.636;2023-05-07T06:40:08;3.60;;;3.40;;
9424;SDS011;17139;52.140;11.636;2023-05-07T06:42:36;4.00;;;3.80;;
9424;SDS011;17139;52.140;11.636;2023-05-07T06:45:03;4.40;;;4.20;;
9424;SDS011;17139;52.140;11.636;2023-05-07T06:47:31;4.43;;;4.23;;
9424;SDS011;17139;52.140;11.636;2023-05-07T06:50:00;4.33;;;4.13;;
9424;SDS011;17139;52.140;11.636;2023-05-07T06:52:26;4.20;;;4.00;;
9424;SDS011;17139;52.140;11.636;2023-05-07T06:54:53;4.23;;;4.03;;
9424;SDS011;17139;52.140;11.636;2023-05-07T06:57:20;4.40;;;4.20;;
9424;SDS011;17139;52.140;11.636;2023-05-07T06:59:47;4.50;;;4.20;;
9424;SDS011;17139;52.140;11.636;2023-05-07T07:02:14;4.47;;;4.27;;
9424;SDS011;17139;52.140;11.636;2023-05-07T07:04:42;4.37;;;4.17;;
9424;SDS011;17139;52.140;11.636;2023-05-07T07:07:13;5.53;;;5.20;;
9424;SDS011;17139;52.140;11.636;2023-05-07T07:09:41;4.70;;;4.50;;
9424;SDS011;17139;52.140;11.636;2023-05-07T07:12:08;5.30;;;4.80;;
9424;SDS011;17139;52.140;11.636;2023-05-07T07:14:35;4.95;;;4.65;;
9424;SDS011;17139;52.140;11.636;2023-05-07T07:17:02;4.43;;;4.03;;
9424;SDS011;17139;52.140;11.636;2023-05-07T07:19:30;3.67;;;3.57;;
9424;SDS011;17139;52.140;11.636;2023-05-07T07:21:57;4.40;;;4.17;;
9424;SDS011;17139;52.140;11.636;2023-05-07T07:24:25;3.83;;;3.70;;
9424;SDS011;17139;52.140;11.636;2023-05-07T07:26:52;4.37;;;4.17;;
9424;SDS011;17139;52.140;11.636;2023-05-07T07:29:20;4.10;;;3.90;;
9424;SDS011;17139;52.140;11.636;2023-05-07T07:31:47;4.67;;;4.47;;
9424;SDS011;17139;52.140;11.636;2023-05-07T07:34:15;3.87;;;3.77;;
9424;SDS011;17139;52.140;11.636;2023-05-07T07:36:42;5.10;;;4.80;;
9424;SDS011;17139;52.140;11.636;2023-05-07T07:39:09;5.47;;;5.17;;
9424;SDS011;17139;52.140;11.636;2023-05-07T07:41:37;5.57;;;5.28;;
9424;SDS011;17139;52.140;11.636;2023-05-07T07:44:04;4.63;;;4.32;;
9424;SDS011;17139;52.140;11.636;2023-05-07T07:46:32;5.47;;;5.20;;
9424;SDS011;17139;52.140;11.636;2023-05-07T07:48:59;4.53;;;4.33;;
9424;SDS011;17139;52.140;11.636;2023-05-07T07:51:26;5.10;;;4.90;;
9424;SDS011;17139;52.140;11.636;2023-05-07T07:53:53;4.40;;;4.20;;
9424;SDS011;17139;52.140;11.636;2023-05-07T07:56:22;5.40;;;5.10;;
9424;SDS011;17139;52.140;11.636;2023-05-07T07:58:51;4.80;;;4.60;;
9424;SDS011;17139;52.140;11.636;2023-05-07T08:01:18;4.43;;;4.13;;
9424;SDS011;17139;52.140;11.636;2023-05-07T08:03:45;4.20;;;4.00;;
9424;SDS011;17139;52.140;11.636;2023-05-07T08:06:12;4.93;;;4.63;;
9424;SDS011;17139;52.140;11.636;2023-05-07T08:08:38;4.80;;;4.60;;
9424;SDS011;17139;52.140;11.636;2023-05-07T08:11:06;4.67;;;4.47;;
9424;SDS011;17139;52.140;11.636;2023-05-07T08:13:33;4.60;;;4.40;;
9424;SDS011;17139;52.140;11.636;2023-05-07T08:16:01;5.53;;;4.97;;
9424;SDS011;17139;52.140;11.636;2023-05-07T08:18:29;4.97;;;4.77;;
9424;SDS011;17139;52.140;11.636;2023-05-07T08:20:56;5.20;;;4.90;;
9424;SDS011;17139;52.140;11.636;2023-05-07T08:23:23;6.25;;;5.95;;
9424;SDS011;17139;52.140;11.636;2023-05-07T08:25:50;5.30;;;5.00;;
9424;SDS011;17139;52.140;11.636;2023-05-07T08:28:17;5.27;;;5.07;;
9424;SDS011;17139;52.140;11.636;2023-05-07T08:30:44;6.20;;;5.80;;
9424;SDS011;17139;52.140;11.636;2023-05-07T08:33:13;4.80;;;4.57;;
9424;SDS011;17139;52.140;11.636;2023-05-07T08:35:40;5.40;;;5.10;;
9424;SDS011;17139;52.140;11.636;2023-05-07T08:38:07;4.80;;;4.60;;
9424;SDS011;17139;52.140;11.636;2023-05-07T08:40:36;6.00;;;5.50;;
9424;SDS011;17139;52.140;11.636;2023-05-07T08:43:06;5.17;;;4.77;;
9424;SDS011;17139;52.140;11.636;2023-05-07T08:45:33;5.10;;;4.83;;
9424;SDS011;17139;52.140;11.636;2023-05-07T08:48:02;5.40;;;5.00;;
9424;SDS011;17139;52.140;11.636;2023-05-07T08:50:32;5.67;;;5.37;;
9424;SDS011;17139;52.140;11.636;2023-05-07T08:53:02;4.82;;;4.53;;
9424;SDS011;17139;52.140;11.636;2023-05-07T08:55:29;6.13;;;5.75;;
9424;SDS011;17139;52.140;11.636;2023-05-07T08:57:58;6.03;;;5.72;;
9424;SDS011;17139;52.140;11.636;2023-05-07T09:00:25;4.78;;;4.57;;
9424;SDS011;17139;52.140;11.636;2023-05-07T09:02:52;5.60;;;5.20;;
9424;SDS011;17139;52.140;11.636;2023-05-07T09:05:19;4.82;;;4.63;;
9424;SDS011;17139;52.140;11.636;2023-05-07T09:07:48;5.00;;;4.70;;
9424;SDS011;17139;52.140;11.636;2023-05-07T09:10:15;5.30;;;4.88;;
9424;SDS011;17139;52.140;11.636;2023-05-07T09:12:42;4.72;;;4.53;;
9424;SDS011;17139;52.140;11.636;2023-05-07T09:15:09;4.93;;;4.53;;
9424;SDS011;17139;52.140;11.636;2023-05-07T09:17:37;4.85;;;4.55;;
9424;SDS011;17139;52.140;11.636;2023-05-07T09:20:06;5.60;;;5.30;;
9424;SDS011;17139;52.140;11.636;2023-05-07T09:22:35;5.73;;;5.33;;
9424;SDS011;17139;52.140;11.636;2023-05-07T09:25:05;5.20;;;4.90;;
9424;SDS011;17139;52.140;11.636;2023-05-07T09:27:34;4.47;;;4.27;;
9424;SDS011;17139;52.140;11.636;2023-05-07T09:30:03;5.25;;;4.85;;
9424;SDS011;17139;52.140;11.636;2023-05-07T09:32:33;4.68;;;4.45;;
9424;SDS011;17139;52.140;11.636;2023-05-07T09:35:01;4.90;;;4.60;;
9424;SDS011;17139;52.140;11.636;2023-05-07T09:37:28;5.10;;;4.80;;
9424;SDS011;17139;52.140;11.636;2023-05-07T09:39:57;4.68;;;4.47;;
9424;SDS011;17139;52.140;11.636;2023-05-07T09:42:25;4.68;;;4.28;;
9424;SDS011;17139;52.140;11.636;2023-05-07T09:44:53;4.60;;;4.30;;
9424;SDS011;17139;52.140;11.636;2023-05-07T09:47:20;5.40;;;5.10;;
9424;SDS011;17139;52.140;11.636;2023-05-07T09:49:50;5.10;;;4.85;;
9424;SDS011;17139;52.140;11.636;2023-05-07T09:52:22;5.22;;;4.85;;
9424;SDS011;17139;52.140;11.636;2023-05-07T09:54:53;4.22;;;4.03;;
9424;SDS011;17139;52.140;11.636;2023-05-07T09:57:22;4.57;;;4.28;;
9424;SDS011;17139;52.140;11.636;2023-05-07T09:59:52;4.57;;;4.35;;
9424;SDS011;17139;52.140;11.636;2023-05-07T10:02:21;5.07;;;4.78;;
9424;SDS011;17139;52.140;11.636;2023-05-07T10:04:49;5.05;;;4.75;;
9424;SDS011;17139;52.140;11.636;2023-05-07T10:07:17;5.72;;;5.32;;
9424;SDS011;17139;52.140;11.636;2023-05-07T10:09:44;5.78;;;5.47;;
9424;SDS011;17139;52.140;11.636;2023-05-07T10:12:12;5.28;;;4.97;;
9424;SDS011;17139;52.140;11.636;2023-05-07T10:14:39;4.85;;;4.65;;
9424;SDS011;17139;52.140;11.636;2023-05-07T10:17:08;5.05;;;4.75;;
9424;SDS011;17139;52.140;11.636;2023-05-07T10:19:37;4.55;;;4.25;;
9424;SDS011;17139;52.140;11.636;2023-05-07T10:22:05;4.40;;;4.10;;
9424;SDS011;17139;52.140;11.636;2023-05-07T10:24:36;5.15;;;4.70;;
9424;SDS011;17139;52.140;11.636;2023-05-07T10:27:08;4.60;;;4.30;;
9424;SDS011;17139;52.140;11.636;2023-05-07T10:29:43;5.10;;;4.80;;
9424;SDS011;17139;52.140;11.636;2023-05-07T10:32:27;5.85;;;5.55;;
9424;SDS011;17139;52.140;11.636;2023-05-07T10:35:03;5.75;;;5.20;;
9424;SDS011;17139;52.140;11.636;2023-05-07T10:37:35;4.70;;;4.50;;
9424;SDS011;17139;52.140;11.636;2023-05-07T10:40:02;4.25;;;3.95;;
9424;SDS011;17139;52.140;11.636;2023-05-07T10:42:33;4.63;;;4.22;;
9424;SDS011;17139;52.140;11.636;2023-05-07T10:45:11;4.28;;;4.07;;
9424;SDS011;17139;52.140;11.636;2023-05-07T10:50:36;3.85;;;3.65;;
9424;SDS011;17139;52.140;11.636;2023-05-07T10:53:23;4.60;;;4.30;;
9424;SDS011;17139;52.140;11.636;2023-05-07T10:58:52;6.43;;;4.38;;
9424;SDS011;17139;52.140;11.636;2023-05-07T11:04:18;4.38;;;4.07;;
9424;SDS011;17139;52.140;11.636;2023-05-07T11:09:54;4.38;;;3.95;;
9424;SDS011;17139;52.140;11.636;2023-05-07T11:15:37;4.95;;;4.60;;
9424;SDS011;17139;52.140;11.636;2023-05-07T11:18:07;3.90;;;3.70;;
9424;SDS011;17139;52.140;11.636;2023-05-07T11:20:48;4.68;;;4.43;;
9424;SDS011;17139;52.140;11.636;2023-05-07T11:26:25;4.45;;;4.10;;
9424;SDS011;17139;52.140;11.636;2023-05-07T11:28:52;4.97;;;3.45;;
9424;SDS011;17139;52.140;11.636;2023-05-07T11:31:20;4.35;;;4.10;;
9424;SDS011;17139;52.140;11.636;2023-05-07T11:33:48;3.65;;;3.55;;
9424;SDS011;17139;52.140;11.636;2023-05-07T11:36:17;4.20;;;4.00;;
9424;SDS011;17139;52.140;11.636;2023-05-07T11:38:45;4.18;;;3.97;;
9424;SDS011;17139;52.140;11.636;2023-05-07T11:41:13;3.88;;;3.63;;
9424;SDS011;17139;52.140;11.636;2023-05-07T11:43:53;4.17;;;3.97;;
9424;SDS011;17139;52.140;11.636;2023-05-07T11:46:23;4.55;;;4.15;;
9424;SDS011;17139;52.140;11.636;2023-05-07T11:48:50;3.40;;;3.30;;
9424;SDS011;17139;52.140;11.636;2023-05-07T11:51:22;4.05;;;3.85;;
9424;SDS011;17139;52.140;11.636;2023-05-07T11:53:51;4.18;;;3.97;;
9424;SDS011;17139;52.140;11.636;2023-05-07T11:56:18;3.53;;;3.42;;
9424;SDS011;17139;52.140;11.636;2023-05-07T11:58:46;3.28;;;3.17;;
9424;SDS011;17139;52.140;11.636;2023-05-07T12:01:16;3.40;;;3.30;;
9424;SDS011;17139;52.140;11.636;2023-05-07T12:03:43;4.00;;;3.70;;
9424;SDS011;17139;52.140;11.636;2023-05-07T12:06:12;3.78;;;3.58;;
9424;SDS011;17139;52.140;11.636;2023-05-07T12:08:42;3.63;;;3.53;;
9424;SDS011;17139;52.140;11.636;2023-05-07T12:11:12;3.40;;;3.30;;
9424;SDS011;17139;52.140;11.636;2023-05-07T12:13:41;3.45;;;3.30;;
9424;SDS011;17139;52.140;11.636;2023-05-07T12:16:08;3.67;;;3.38;;
9424;SDS011;17139;52.140;11.636;2023-05-07T12:18:36;2.95;;;2.85;;
9424;SDS011;17139;52.140;11.636;2023-05-07T12:21:06;3.20;;;3.10;;
9424;SDS011;17139;52.140;11.636;2023-05-07T12:23:34;3.05;;;2.95;;
9424;SDS011;17139;52.140;11.636;2023-05-07T12:26:03;3.63;;;3.38;;
9424;SDS011;17139;52.140;11.636;2023-05-07T12:28:31;3.20;;;3.10;;
9424;SDS011;17139;52.140;11.636;2023-05-07T12:31:03;3.53;;;3.33;;
9424;SDS011;17139;52.140;11.636;2023-05-07T12:33:31;3.42;;;3.33;;
9424;SDS011;17139;52.140;11.636;2023-05-07T12:35:58;3.80;;;3.70;;
9424;SDS011;17139;52.140;11.636;2023-05-07T12:38:25;3.72;;;3.53;;
9424;SDS011;17139;52.140;11.636;2023-05-07T12:40:53;3.38;;;3.28;;
9424;SDS011;17139;52.140;11.636;2023-05-07T12:43:23;2.97;;;2.88;;
9424;SDS011;17139;52.140;11.636;2023-05-07T12:45:53;3.20;;;3.10;;
9424;SDS011;17139;52.140;11.636;2023-05-07T12:48:21;3.97;;;3.65;;
9424;SDS011;17139;52.140;11.636;2023-05-07T12:50:52;3.42;;;3.33;;
9424;SDS011;17139;52.140;11.636;2023-05-07T12:53:20;4.43;;;4.10;;
9424;SDS011;17139;52.140;11.636;2023-05-07T12:55:48;4.30;;;4.10;;
9424;SDS011;17139;52.140;11.636;2023-05-07T12:58:18;3.80;;;3.70;;
9424;SDS011;17139;52.140;11.636;2023-05-07T13:00:48;4.07;;;3.70;;
9424;SDS011;17139;52.140;11.636;2023-05-07T13:03:21;3.58;;;3.47;;
9424;SDS011;17139;52.140;11.636;2023-05-07T13:05:49;3.42;;;3.17;;
9424;SDS011;17139;52.140;11.636;2023-05-07T13:08:23;3.58;;;3.38;;
9424;SDS011;17139;52.140;11.636;2023-05-07T13:10:54;3.50;;;3.40;;
9424;SDS011;17139;52.140;11.636;2023-05-07T13:13:21;3.05;;;2.95;;
9424;SDS011;17139;52.140;11.636;2023-05-07T13:15:50;3.65;;;3.35;;
9424;SDS011;17139;52.140;11.636;2023-05-07T13:18:17;3.80;;;3.70;;
9424;SDS011;17139;52.140;11.636;2023-05-07T13:20:44;4.15;;;3.95;;
9424;SDS011;17139;52.140;11.636;2023-05-07T13:23:11;3.58;;;3.38;;
9424;SDS011;17139;52.140;11.636;2023-05-07T13:25:38;3.72;;;3.63;;
9424;SDS011;17139;52.140;11.636;2023-05-07T13:28:05;4.70;;;4.03;;
9424;SDS011;17139;52.140;11.636;2023-05-07T13:30:32;3.47;;;3.38;;
9424;SDS011;17139;52.140;11.636;2023-05-07T13:33:01;3.70;;;3.60;;
9424;SDS011;17139;52.140;11.636;2023-05-07T13:35:28;3.80;;;3.60;;
9424;SDS011;17139;52.140;11.636;2023-05-07T13:37:55;4.95;;;4.55;;
9424;SDS011;17139;52.140;11.636;2023-05-07T13:40:22;4.00;;;3.90;;
9424;SDS011;17139;52.140;11.636;2023-05-07T13:42:49;4.03;;;3.93;;
9424;SDS011;17139;52.140;11.636;2023-05-07T13:45:17;4.15;;;3.97;;
9424;SDS011;17139;52.140;11.636;2023-05-07T13:47:44;3.85;;;3.67;;
9424;SDS011;17139;52.140;11.636;2023-05-07T13:50:15;3.40;;;3.30;;
9424;SDS011;17139;52.140;11.636;2023-05-07T13:52:42;3.33;;;3.15;;
9424;SDS011;17139;52.140;11.636;2023-05-07T13:55:15;3.25;;;3.05;;
9424;SDS011;17139;52.140;11.636;2023-05-07T13:57:42;3.35;;;3.10;;
9424;SDS011;17139;52.140;11.636;2023-05-07T14:00:10;2.85;;;2.75;;
9424;SDS011;17139;52.140;11.636;2023-05-07T14:02:38;3.05;;;2.95;;
9424;SDS011;17139;52.140;11.636;2023-05-07T14:05:05;3.15;;;2.95;;
9424;SDS011;17139;52.140;11.636;2023-05-07T14:07:35;3.73;;;3.50;;
9424;SDS011;17139;52.140;11.636;2023-05-07T14:10:02;3.65;;;3.45;;
9424;SDS011;17139;52.140;11.636;2023-05-07T14:12:31;2.90;;;2.70;;
9424;SDS011;17139;52.140;11.636;2023-05-07T14:14:58;2.85;;;2.67;;
9424;SDS011;17139;52.140;11.636;2023-05-07T14:17:25;2.63;;;2.53;;
9424;SDS011;17139;52.140;11.636;2023-05-07T14:19:53;2.75;;;2.50;;
9424;SDS011;17139;52.140;11.636;2023-05-07T14:22:20;2.63;;;2.53;;
9424;SDS011;17139;52.140;11.636;2023-05-07T14:24:50;2.33;;;2.30;;
9424;SDS011;17139;52.140;11.636;2023-05-07T14:27:17;2.70;;;2.60;;
9424;SDS011;17139;52.140;11.636;2023-05-07T14:29:44;3.17;;;3.08;;
9424;SDS011;17139;52.140;11.636;2023-05-07T14:32:15;3.23;;;3.13;;
9424;SDS011;17139;52.140;11.636;2023-05-07T14:34:43;3.47;;;3.35;;
9424;SDS011;17139;52.140;11.636;2023-05-07T14:37:10;3.20;;;2.97;;
9424;SDS011;17139;52.140;11.636;2023-05-07T14:39:37;3.13;;;3.00;;
9424;SDS011;17139;52.140;11.636;2023-05-07T14:42:05;3.22;;;3.13;;
9424;SDS011;17139;52.140;11.636;2023-05-07T14:44:32;2.95;;;2.85;;
9424;SDS011;17139;52.140;11.636;2023-05-07T14:46:59;3.17;;;2.97;;
9424;SDS011;17139;52.140;11.636;2023-05-07T14:49:26;3.57;;;3.30;;
9424;SDS011;17139;52.140;11.636;2023-05-07T14:51:54;4.22;;;3.10;;
9424;SDS011;17139;52.140;11.636;2023-05-07T14:54:23;2.78;;;2.67;;
9424;SDS011;17139;52.140;11.636;2023-05-07T14:56:50;3.10;;;2.90;;
9424;SDS011;17139;52.140;11.636;2023-05-07T14:59:18;2.70;;;2.60;;
9424;SDS011;17139;52.140;11.636;2023-05-07T15:01:46;2.70;;;2.60;;
9424;SDS011;17139;52.140;11.636;2023-05-07T15:04:13;2.70;;;2.60;;
9424;SDS011;17139;52.140;11.636;2023-05-07T15:06:40;2.22;;;2.22;;
9424;SDS011;17139;52.140;11.636;2023-05-07T15:09:07;2.67;;;2.47;;
9424;SDS011;17139;52.140;11.636;2023-05-07T15:11:34;2.42;;;2.33;;